LDG18 EGTK-EGMD
Flight info
| Callsign | LDG18 |
|---|---|
| Flight time | N/A |
| Altitude | 2500 |
| Route | DCT |
| Aircraft | DA42/L-SBDGRY/S |
Departure
| Time | 2026-04-20 08:57 |
|---|---|
| Airport | London Oxford Airport (EGTK) |
Arrival
| Time | N/A |
|---|---|
| Airport | Lydd London Ashford Airport (EGMD) |
| Time | Latitude | Longitude | Altitude | Speed | Heading |
|---|---|---|---|---|---|
| 2026-04-20 08:38 | 51.83260 | -1.31272 | 263 ft | 0 kts | 299° |
| 2026-04-20 08:41 | 51.83260 | -1.31271 | 263 ft | 0 kts | 299° |
| 2026-04-20 08:48 | 51.83260 | -1.31270 | 263 ft | 0 kts | 299° |
| 2026-04-20 08:48 | 51.83263 | -1.31298 | 263 ft | 7 kts | 258° |
| 2026-04-20 08:48 | 51.83242 | -1.31423 | 263 ft | 15 kts | 253° |
| 2026-04-20 08:49 | 51.83217 | -1.31581 | 263 ft | 13 kts | 256° |
| 2026-04-20 08:49 | 51.83150 | -1.31560 | 263 ft | 11 kts | 155° |
| 2026-04-20 08:49 | 51.83075 | -1.31523 | 263 ft | 12 kts | 188° |
| 2026-04-20 08:49 | 51.83025 | -1.31621 | 263 ft | 13 kts | 260° |
| 2026-04-20 08:50 | 51.83010 | -1.31762 | 263 ft | 13 kts | 261° |
| 2026-04-20 08:50 | 51.82996 | -1.31909 | 263 ft | 13 kts | 261° |
| 2026-04-20 08:50 | 51.82988 | -1.31991 | 263 ft | 0 kts | 261° |
| 2026-04-20 08:51 | 51.82988 | -1.31990 | 263 ft | 0 kts | 261° |
| 2026-04-20 08:54 | 51.82992 | -1.32096 | 263 ft | 16 kts | 282° |
| 2026-04-20 08:54 | 51.83042 | -1.32194 | 265 ft | 5 kts | 9° |
| 2026-04-20 08:55 | 51.83043 | -1.32194 | 265 ft | 0 kts | 10° |
| 2026-04-20 08:56 | 51.83112 | -1.32172 | 264 ft | 37 kts | 12° |
| 2026-04-20 08:57 | 51.83552 | -1.32040 | 274 ft | 85 kts | 10° |
| 2026-04-20 08:57 | 51.84174 | -1.31865 | 505 ft | 93 kts | 11° |
| 2026-04-20 08:57 | 51.84812 | -1.31665 | 849 ft | 93 kts | 12° |
| 2026-04-20 08:57 | 51.85426 | -1.31465 | 1189 ft | 89 kts | 26° |
| 2026-04-20 08:58 | 51.85689 | -1.30574 | 1423 ft | 102 kts | 98° |
| 2026-04-20 08:58 | 51.85437 | -1.29526 | 1760 ft | 102 kts | 114° |
| 2026-04-20 08:58 | 51.84897 | -1.28723 | 2002 ft | 113 kts | 156° |
| 2026-04-20 08:58 | 51.84076 | -1.28691 | 2046 ft | 125 kts | 186° |
| 2026-04-20 08:59 | 51.83162 | -1.28873 | 2002 ft | 137 kts | 183° |
| 2026-04-20 08:59 | 51.82189 | -1.29017 | 1992 ft | 141 kts | 182° |
| 2026-04-20 08:59 | 51.81213 | -1.29159 | 2019 ft | 143 kts | 183° |
| 2026-04-20 08:59 | 51.80190 | -1.29294 | 1998 ft | 148 kts | 181° |
| 2026-04-20 09:00 | 51.79173 | -1.29436 | 1979 ft | 147 kts | 179° |
| 2026-04-20 09:00 | 51.78292 | -1.28889 | 1972 ft | 134 kts | 132° |
| 2026-04-20 09:00 | 51.77909 | -1.27551 | 1964 ft | 134 kts | 96° |
| 2026-04-20 09:00 | 51.77837 | -1.26045 | 1978 ft | 136 kts | 90° |
| 2026-04-20 09:01 | 51.77790 | -1.24501 | 1970 ft | 138 kts | 91° |
| 2026-04-20 09:01 | 51.77741 | -1.22966 | 1971 ft | 135 kts | 91° |
| 2026-04-20 09:01 | 51.77708 | -1.21453 | 1962 ft | 134 kts | 85° |
| 2026-04-20 09:01 | 51.77930 | -1.20009 | 1969 ft | 133 kts | 69° |
| 2026-04-20 09:02 | 51.78226 | -1.18593 | 1969 ft | 133 kts | 70° |
| 2026-04-20 09:02 | 51.78520 | -1.17177 | 1973 ft | 133 kts | 70° |
| 2026-04-20 09:02 | 51.78824 | -1.15752 | 1963 ft | 136 kts | 70° |
| 2026-04-20 09:02 | 51.79140 | -1.14319 | 1975 ft | 134 kts | 69° |
| 2026-04-20 09:03 | 51.79444 | -1.12902 | 1982 ft | 134 kts | 69° |
| 2026-04-20 09:03 | 51.79751 | -1.11458 | 1961 ft | 136 kts | 69° |
| 2026-04-20 09:03 | 51.80052 | -1.10043 | 1965 ft | 130 kts | 69° |
| 2026-04-20 09:03 | 51.80346 | -1.08682 | 1973 ft | 128 kts | 69° |
| 2026-04-20 09:04 | 51.80633 | -1.07345 | 1970 ft | 128 kts | 69° |
| 2026-04-20 09:04 | 51.80917 | -1.06019 | 1981 ft | 125 kts | 70° |
| 2026-04-20 09:04 | 51.81020 | -1.04632 | 1976 ft | 130 kts | 102° |
| 2026-04-20 09:04 | 51.80679 | -1.03234 | 1981 ft | 138 kts | 111° |
| 2026-04-20 09:05 | 51.80277 | -1.01815 | 1978 ft | 140 kts | 112° |
| 2026-04-20 09:05 | 51.79877 | -1.00408 | 1966 ft | 136 kts | 111° |
| 2026-04-20 09:05 | 51.79487 | -0.99037 | 1975 ft | 134 kts | 111° |
| 2026-04-20 09:05 | 51.79095 | -0.97646 | 1965 ft | 138 kts | 111° |
| 2026-04-20 09:06 | 51.78691 | -0.96255 | 1969 ft | 135 kts | 111° |
| 2026-04-20 09:06 | 51.78299 | -0.94894 | 1961 ft | 133 kts | 111° |
| 2026-04-20 09:06 | 51.77903 | -0.93539 | 1967 ft | 133 kts | 111° |
| 2026-04-20 09:06 | 51.77502 | -0.92166 | 1953 ft | 136 kts | 112° |
| 2026-04-20 09:07 | 51.77101 | -0.90792 | 1985 ft | 136 kts | 112° |
| 2026-04-20 09:07 | 51.76712 | -0.89430 | 1964 ft | 133 kts | 111° |
| 2026-04-20 09:07 | 51.76347 | -0.88162 | 1955 ft | 130 kts | 111° |
| 2026-04-20 09:07 | 51.75963 | -0.86833 | 1975 ft | 132 kts | 111° |
| 2026-04-20 09:08 | 51.75573 | -0.85495 | 1964 ft | 134 kts | 111° |
| 2026-04-20 09:08 | 51.75169 | -0.84120 | 1975 ft | 134 kts | 112° |
| 2026-04-20 09:08 | 51.74776 | -0.82772 | 1965 ft | 135 kts | 112° |
| 2026-04-20 09:08 | 51.74370 | -0.81385 | 1976 ft | 137 kts | 111° |
| 2026-04-20 09:09 | 51.73970 | -0.80011 | 1974 ft | 135 kts | 111° |
| 2026-04-20 09:09 | 51.73585 | -0.78677 | 1978 ft | 130 kts | 111° |
| 2026-04-20 09:09 | 51.73198 | -0.77345 | 1963 ft | 132 kts | 111° |
| 2026-04-20 09:09 | 51.72814 | -0.76043 | 1989 ft | 128 kts | 111° |
| 2026-04-20 09:10 | 51.72424 | -0.74726 | 1983 ft | 131 kts | 111° |
| 2026-04-20 09:10 | 51.72035 | -0.73439 | 1967 ft | 132 kts | 112° |
| 2026-04-20 09:10 | 51.71641 | -0.72119 | 1987 ft | 131 kts | 111° |
| 2026-04-20 09:10 | 51.71247 | -0.70755 | 1962 ft | 135 kts | 112° |
| 2026-04-20 09:11 | 51.70853 | -0.69411 | 1990 ft | 133 kts | 112° |
| 2026-04-20 09:11 | 51.70464 | -0.68051 | 1970 ft | 133 kts | 111° |
| 2026-04-20 09:11 | 51.70069 | -0.66708 | 1963 ft | 132 kts | 111° |
| 2026-04-20 09:11 | 51.69670 | -0.65379 | 1973 ft | 131 kts | 111° |
| 2026-04-20 09:12 | 51.69277 | -0.64062 | 1985 ft | 131 kts | 111° |
| 2026-04-20 09:12 | 51.68875 | -0.62711 | 1977 ft | 136 kts | 111° |
| 2026-04-20 09:12 | 51.68473 | -0.61340 | 1969 ft | 133 kts | 112° |
| 2026-04-20 09:12 | 51.68082 | -0.60023 | 1960 ft | 128 kts | 111° |
| 2026-04-20 09:13 | 51.67698 | -0.58749 | 1972 ft | 126 kts | 112° |
| 2026-04-20 09:13 | 51.67446 | -0.57908 | 1985 ft | 126 kts | 112° |
| 2026-04-20 09:13 | 51.66873 | -0.56190 | 1976 ft | 131 kts | 115° |
| 2026-04-20 09:13 | 51.66426 | -0.54924 | 1983 ft | 131 kts | 116° |
| 2026-04-20 09:14 | 51.65974 | -0.53647 | 1970 ft | 132 kts | 116° |
| 2026-04-20 09:14 | 51.65523 | -0.52373 | 1969 ft | 128 kts | 116° |
| 2026-04-20 09:14 | 51.65228 | -0.51538 | 1965 ft | 126 kts | 115° |
| 2026-04-20 09:14 | 51.64798 | -0.50306 | 1965 ft | 127 kts | 115° |
| 2026-04-20 09:15 | 51.64356 | -0.49070 | 1977 ft | 128 kts | 116° |
| 2026-04-20 09:15 | 51.63910 | -0.47837 | 1970 ft | 127 kts | 116° |
| 2026-04-20 09:15 | 51.63464 | -0.46612 | 1958 ft | 126 kts | 116° |
| 2026-04-20 09:15 | 51.63029 | -0.45406 | 1967 ft | 123 kts | 116° |
| 2026-04-20 09:16 | 51.62605 | -0.44214 | 1972 ft | 124 kts | 115° |
| 2026-04-20 09:16 | 51.62181 | -0.43020 | 1965 ft | 121 kts | 115° |
| 2026-04-20 09:16 | 51.61763 | -0.41870 | 1971 ft | 120 kts | 115° |
| 2026-04-20 09:16 | 51.61336 | -0.40704 | 1968 ft | 121 kts | 116° |
| 2026-04-20 09:17 | 51.60911 | -0.39543 | 1965 ft | 121 kts | 116° |
| 2026-04-20 09:17 | 51.60482 | -0.38361 | 1978 ft | 124 kts | 116° |
| 2026-04-20 09:17 | 51.60048 | -0.37161 | 1972 ft | 124 kts | 116° |
| 2026-04-20 09:17 | 51.59604 | -0.35956 | 1970 ft | 129 kts | 116° |
| 2026-04-20 09:18 | 51.59156 | -0.34703 | 1984 ft | 129 kts | 116° |
| 2026-04-20 09:18 | 51.58700 | -0.33430 | 1970 ft | 132 kts | 116° |
| 2026-04-20 09:18 | 51.58246 | -0.32140 | 1969 ft | 132 kts | 116° |
| 2026-04-20 09:18 | 51.57784 | -0.30871 | 1952 ft | 132 kts | 118° |
| 2026-04-20 09:19 | 51.57281 | -0.29651 | 1987 ft | 129 kts | 119° |
| 2026-04-20 09:19 | 51.56815 | -0.28441 | 1999 ft | 127 kts | 117° |
| 2026-04-20 09:19 | 51.56393 | -0.27190 | 1971 ft | 129 kts | 111° |
| 2026-04-20 09:19 | 51.56025 | -0.25896 | 1961 ft | 129 kts | 110° |
| 2026-04-20 09:20 | 51.55705 | -0.24547 | 1981 ft | 129 kts | 106° |
| 2026-04-20 09:20 | 51.55394 | -0.23183 | 1956 ft | 130 kts | 107° |
| 2026-04-20 09:20 | 51.55074 | -0.21825 | 1995 ft | 129 kts | 108° |
| 2026-04-20 09:20 | 51.54730 | -0.20508 | 1938 ft | 129 kts | 110° |
| 2026-04-20 09:21 | 51.54375 | -0.19183 | 1915 ft | 127 kts | 111° |
| 2026-04-20 09:21 | 51.53936 | -0.17952 | 1908 ft | 128 kts | 121° |
| 2026-04-20 09:21 | 51.53414 | -0.16806 | 1991 ft | 126 kts | 123° |
| 2026-04-20 09:21 | 51.52918 | -0.15645 | 1998 ft | 127 kts | 119° |
| 2026-04-20 09:22 | 51.52480 | -0.14410 | 2017 ft | 127 kts | 114° |
| 2026-04-20 09:22 | 51.52073 | -0.13142 | 2027 ft | 129 kts | 114° |
| 2026-04-20 09:22 | 51.51697 | -0.11817 | 1997 ft | 131 kts | 109° |
| 2026-04-20 09:22 | 51.51343 | -0.10490 | 2011 ft | 132 kts | 108° |
| 2026-04-20 09:23 | 51.50980 | -0.09119 | 2010 ft | 136 kts | 109° |
| 2026-04-20 09:23 | 51.50600 | -0.07712 | 1993 ft | 136 kts | 109° |
| 2026-04-20 09:23 | 51.50236 | -0.06335 | 1993 ft | 131 kts | 109° |
| 2026-04-20 09:23 | 51.49809 | -0.05059 | 1993 ft | 129 kts | 117° |
| 2026-04-20 09:24 | 51.49325 | -0.03827 | 1989 ft | 134 kts | 117° |
| 2026-04-20 09:24 | 51.48825 | -0.02572 | 1984 ft | 134 kts | 121° |
| 2026-04-20 09:24 | 51.48156 | -0.01560 | 1996 ft | 131 kts | 138° |
| 2026-04-20 09:24 | 51.47413 | -0.00708 | 1999 ft | 131 kts | 139° |
| 2026-04-20 09:25 | 51.46680 | 0.00193 | 2000 ft | 138 kts | 139° |
| 2026-04-20 09:25 | 51.45930 | 0.01141 | 1995 ft | 135 kts | 137° |
| 2026-04-20 09:25 | 51.45341 | 0.02266 | 1991 ft | 132 kts | 117° |
| 2026-04-20 09:25 | 51.44868 | 0.03512 | 2006 ft | 132 kts | 117° |
| 2026-04-20 09:26 | 51.44360 | 0.04765 | 2008 ft | 136 kts | 118° |